createdAt,value
2022-10-21T00:00:17.858Z,111.32
2022-10-21T00:02:44.695Z,163.50
2022-10-21T00:05:11.424Z,100.80
2022-10-21T00:07:38.464Z,100.78
2022-10-21T00:10:06.266Z,195.15
2022-10-21T00:12:33.843Z,138.38
2022-10-21T00:15:00.465Z,107.28
2022-10-21T00:17:27.081Z,463.67
2022-10-21T00:19:53.674Z,264.13
2022-10-21T00:22:20.300Z,159.60
2022-10-21T00:24:46.916Z,116.00
2022-10-21T00:27:13.572Z,131.18
2022-10-21T00:29:40.213Z,146.23
2022-10-21T00:32:06.864Z,130.40
2022-10-21T00:34:33.694Z,155.35
2022-10-21T00:37:00.451Z,125.80
2022-10-21T00:39:27.195Z,124.20
2022-10-21T00:41:53.803Z,169.48
2022-10-21T00:44:20.378Z,151.88
2022-10-21T00:47:16.959Z,150.75
2022-10-21T00:50:04.451Z,119.53
2022-10-21T00:52:34.369Z,120.13
2022-10-21T00:55:04.680Z,110.85
2022-10-21T00:57:34.554Z,116.13
2022-10-21T01:00:02.261Z,127.10
2022-10-21T01:02:29.805Z,117.43
2022-10-21T01:05:02.283Z,119.20
2022-10-21T01:07:29.037Z,135.45
2022-10-21T01:09:55.628Z,142.18
2022-10-21T01:12:33.241Z,167.35
2022-10-21T01:15:29.380Z,164.65
2022-10-21T01:18:06.784Z,164.35
2022-10-21T01:20:51.431Z,164.85
2022-10-21T01:23:26.768Z,163.38
2022-10-21T01:26:14.413Z,199.30
2022-10-21T01:28:58.153Z,182.05
2022-10-21T01:31:36.859Z,189.48
2022-10-21T01:34:11.041Z,212.23
2022-10-21T01:36:51.764Z,154.32
2022-10-21T01:39:53.804Z,241.55
2022-10-21T01:42:31.938Z,253.95
2022-10-21T01:45:12.799Z,321.08
2022-10-21T01:47:46.687Z,228.20
2022-10-21T01:50:27.989Z,299.50
2022-10-21T01:52:59.943Z,234.38
2022-10-21T01:55:30.395Z,208.52
2022-10-21T01:58:11.349Z,195.82
2022-10-21T02:00:40.244Z,205.82
2022-10-21T02:03:11.249Z,220.65
2022-10-21T02:05:38.021Z,230.52
2022-10-21T02:08:04.948Z,200.35
2022-10-21T02:10:43.285Z,162.52
2022-10-21T02:13:13.380Z,156.95
2022-10-21T02:15:41.485Z,249.27
2022-10-21T02:18:17.324Z,118.40
2022-10-21T02:20:45.115Z,123.05
2022-10-21T02:23:19.186Z,104.15
2022-10-21T02:25:50.063Z,93.93
2022-10-21T02:28:17.701Z,88.22
2022-10-21T02:31:11.706Z,75.63
2022-10-21T02:33:56.453Z,79.60
2022-10-21T02:36:37.735Z,82.07
2022-10-21T02:39:12.575Z,74.80
2022-10-21T02:41:41.855Z,104.63
2022-10-21T02:44:09.156Z,98.65
2022-10-21T02:46:38.008Z,104.20
2022-10-21T02:49:04.598Z,115.57
2022-10-21T02:51:31.389Z,103.88
2022-10-21T02:53:58.125Z,105.32
2022-10-21T02:56:26.438Z,119.43
2022-10-21T02:58:54.050Z,115.85
2022-10-21T03:01:20.863Z,105.68
2022-10-21T03:03:47.768Z,134.77
2022-10-21T03:06:14.439Z,105.75
2022-10-21T03:08:41.143Z,125.63
2022-10-21T03:11:07.875Z,115.05
2022-10-21T03:13:34.462Z,112.95
2022-10-21T03:16:01.085Z,122.45
2022-10-21T03:18:27.724Z,118.50
2022-10-21T03:20:54.412Z,104.53
2022-10-21T03:23:21.437Z,116.70
2022-10-21T03:25:48.180Z,114.18
2022-10-21T03:28:15.085Z,132.70
2022-10-21T03:30:41.788Z,123.70
2022-10-21T03:33:08.463Z,113.10
2022-10-21T03:35:35.175Z,127.95
2022-10-21T03:38:01.765Z,119.65
2022-10-21T03:40:30.174Z,134.93
2022-10-21T03:42:58.118Z,130.73
2022-10-21T03:45:25.192Z,113.57
2022-10-21T03:47:52.206Z,120.75
2022-10-21T03:50:23.626Z,111.38
2022-10-21T03:52:52.181Z,113.47
2022-10-21T03:55:20.787Z,117.30
2022-10-21T03:57:48.122Z,123.07
2022-10-21T04:00:15.174Z,126.85
2022-10-21T04:02:41.938Z,130.38
2022-10-21T04:05:09.334Z,125.30
2022-10-21T04:07:36.108Z,131.35
2022-10-21T04:10:03.067Z,113.88
2022-10-21T04:12:29.720Z,109.65
2022-10-21T04:14:56.444Z,123.97
2022-10-21T04:17:23.046Z,119.65
2022-10-21T04:19:49.671Z,115.40
2022-10-21T04:22:16.360Z,118.03
2022-10-21T04:24:42.994Z,104.38
2022-10-21T04:27:09.781Z,120.25
2022-10-21T04:29:36.483Z,113.40
2022-10-21T04:32:03.529Z,115.07
2022-10-21T04:34:30.131Z,110.63
2022-10-21T04:36:59.855Z,117.47
2022-10-21T04:39:29.275Z,116.85
2022-10-21T04:41:56.397Z,113.43
2022-10-21T04:44:23.167Z,127.43
2022-10-21T04:46:49.796Z,125.28
2022-10-21T04:49:16.462Z,126.20
2022-10-21T04:51:43.117Z,103.85
2022-10-21T04:54:09.714Z,118.10
2022-10-21T04:56:36.453Z,107.20
2022-10-21T04:59:03.118Z,120.07
2022-10-21T05:01:29.778Z,114.38
2022-10-21T05:03:56.572Z,120.30
2022-10-21T05:06:23.337Z,130.13
2022-10-21T05:08:50.130Z,131.75
2022-10-21T05:11:16.928Z,132.75
2022-10-21T05:13:43.509Z,132.60
2022-10-21T05:16:10.104Z,140.65
2022-10-21T05:18:36.744Z,142.85
2022-10-21T05:21:03.654Z,117.40
2022-10-21T05:23:30.347Z,127.95
2022-10-21T05:25:56.945Z,126.50
2022-10-21T05:28:23.820Z,140.05
2022-10-21T05:30:50.529Z,136.15
2022-10-21T05:33:17.262Z,142.30
2022-10-21T05:35:44.150Z,165.80
2022-10-21T05:38:10.810Z,169.43
2022-10-21T05:40:37.489Z,144.70
2022-10-21T05:43:04.225Z,124.13
2022-10-21T05:45:30.866Z,148.38
2022-10-21T05:47:57.495Z,135.32
2022-10-21T05:50:24.543Z,130.32
2022-10-21T05:52:51.939Z,134.90
2022-10-21T05:55:19.031Z,134.45
2022-10-21T05:57:45.745Z,147.27
2022-10-21T06:00:13.401Z,202.25
2022-10-21T06:02:40.588Z,182.80
2022-10-21T06:05:07.712Z,178.75
2022-10-21T06:07:34.490Z,139.25
2022-10-21T06:10:01.091Z,221.00
2022-10-21T06:12:27.763Z,154.30
2022-10-21T06:14:54.355Z,185.15
2022-10-21T06:17:21.326Z,163.40
2022-10-21T06:19:50.848Z,226.35
2022-10-21T06:22:17.900Z,169.90
2022-10-21T06:24:45.594Z,183.73
2022-10-21T06:27:12.519Z,170.50
2022-10-21T06:29:39.556Z,158.75
2022-10-21T06:32:06.162Z,147.43
2022-10-21T06:34:32.784Z,137.40
2022-10-21T06:36:59.418Z,132.30
2022-10-21T06:39:26.163Z,125.10
2022-10-21T06:41:52.807Z,135.25
2022-10-21T06:44:19.471Z,133.88
2022-10-21T06:46:46.148Z,120.35
2022-10-21T06:49:12.788Z,124.68
2022-10-21T06:51:39.519Z,96.57
2022-10-21T06:54:06.143Z,118.90
2022-10-21T06:56:32.810Z,100.80
2022-10-21T06:58:59.534Z,94.90
2022-10-21T07:01:34.530Z,100.57
2022-10-21T07:04:08.575Z,94.18
2022-10-21T07:06:35.355Z,98.55
2022-10-21T07:09:02.977Z,113.68
2022-10-21T07:11:29.750Z,88.05
2022-10-21T07:13:56.798Z,97.43
2022-10-21T07:16:35.506Z,92.65
2022-10-21T07:19:02.249Z,101.25
2022-10-21T07:21:31.315Z,96.82
2022-10-21T07:23:59.729Z,114.50
2022-10-21T07:26:31.481Z,110.03
2022-10-21T07:29:00.503Z,121.13
2022-10-21T07:31:30.494Z,108.82
2022-10-21T07:33:57.154Z,111.75
2022-10-21T07:36:26.829Z,106.72
2022-10-21T07:38:55.111Z,108.90
2022-10-21T07:41:28.563Z,85.95
2022-10-21T07:43:55.462Z,87.60
2022-10-21T07:46:22.922Z,109.03
2022-10-21T07:48:50.413Z,86.85
2022-10-21T07:51:21.200Z,83.75
2022-10-21T07:53:52.958Z,95.45
2022-10-21T07:56:34.746Z,88.80
2022-10-21T07:59:01.897Z,93.28
2022-10-21T08:01:29.379Z,95.35
2022-10-21T08:03:56.705Z,95.05
2022-10-21T08:06:26.010Z,82.90
2022-10-21T08:08:52.849Z,83.25
2022-10-21T08:11:31.010Z,70.40
2022-10-21T08:13:58.313Z,59.80
2022-10-21T08:16:25.807Z,62.75
2022-10-21T08:18:52.717Z,69.65
2022-10-21T08:21:20.201Z,51.05
2022-10-21T08:23:46.814Z,53.45
2022-10-21T08:26:15.155Z,59.80
2022-10-21T08:28:42.608Z,53.58
2022-10-21T08:31:20.865Z,52.03
2022-10-21T08:33:47.847Z,59.63
2022-10-21T08:36:21.302Z,53.42
2022-10-21T08:38:48.734Z,47.33
2022-10-21T08:41:21.235Z,52.58
2022-10-21T08:43:47.915Z,39.60
2022-10-21T08:46:19.615Z,44.08
2022-10-21T08:48:52.948Z,40.90
2022-10-21T08:51:30.240Z,39.92
2022-10-21T08:54:03.413Z,40.25
2022-10-21T08:56:31.658Z,40.10
2022-10-21T08:58:58.742Z,45.58
2022-10-21T09:01:32.220Z,47.78
2022-10-21T09:04:08.206Z,41.50
2022-10-21T09:06:39.049Z,65.35
2022-10-21T09:09:31.884Z,40.47
2022-10-21T09:12:19.967Z,62.58
2022-10-21T09:14:57.330Z,57.33
2022-10-21T09:17:33.988Z,76.40
2022-10-21T09:20:33.119Z,166.45
2022-10-21T09:23:52.198Z,220.57
2022-10-21T09:26:41.499Z,132.73
2022-10-21T09:29:25.658Z,581.20
2022-10-21T09:31:58.560Z,240.07
2022-10-21T09:34:53.044Z,188.75
2022-10-21T09:37:25.742Z,190.60
2022-10-21T09:40:23.317Z,80.32
2022-10-21T09:42:56.000Z,51.33
2022-10-21T09:45:39.887Z,71.32
2022-10-21T09:49:14.381Z,34.13
2022-10-21T09:51:37.809Z,39.38
2022-10-21T09:54:23.266Z,48.97
2022-10-21T09:57:00.598Z,31.58
2022-10-21T09:59:32.772Z,35.63
2022-10-21T10:02:07.235Z,28.83
2022-10-21T10:04:35.036Z,29.48
2022-10-21T10:07:18.570Z,29.27
2022-10-21T10:09:47.468Z,33.08
2022-10-21T10:12:16.680Z,31.63
2022-10-21T10:14:45.819Z,68.45
2022-10-21T10:17:24.377Z,24.10
2022-10-21T10:20:13.872Z,30.83
2022-10-21T10:22:45.703Z,24.17
2022-10-21T10:25:15.117Z,33.22
2022-10-21T10:27:51.174Z,21.77
2022-10-21T10:30:18.830Z,16.48
2022-10-21T10:32:46.765Z,27.38
2022-10-21T10:35:30.857Z,22.25
2022-10-21T10:37:59.137Z,12.38
2022-10-21T10:40:32.364Z,7.97
2022-10-21T10:43:11.279Z,10.50
2022-10-21T10:45:37.980Z,10.18
2022-10-21T10:48:06.727Z,18.73
2022-10-21T10:50:48.157Z,9.57
2022-10-21T10:53:21.711Z,11.02
2022-10-21T10:55:59.879Z,10.18
2022-10-21T10:58:29.238Z,10.43
2022-10-21T11:00:59.648Z,14.15
2022-10-21T11:03:41.217Z,16.52
2022-10-21T11:06:17.035Z,21.38
2022-10-21T11:08:52.028Z,15.10
2022-10-21T11:11:34.931Z,21.88
2022-10-21T11:14:01.621Z,16.48
2022-10-21T11:16:57.266Z,19.98
2022-10-21T11:19:35.472Z,27.50
2022-10-21T11:22:14.011Z,25.58
2022-10-21T11:25:04.463Z,23.75
2022-10-21T11:27:39.710Z,30.50
2022-10-21T11:30:19.811Z,26.15
2022-10-21T11:33:01.338Z,30.33
2022-10-21T11:36:00.885Z,24.20
2022-10-21T11:38:37.299Z,19.63
2022-10-21T11:41:27.169Z,21.95
2022-10-21T11:44:03.778Z,21.00
2022-10-21T11:46:49.257Z,19.65
2022-10-21T11:49:39.499Z,19.55
2022-10-21T11:52:17.760Z,19.77
2022-10-21T11:55:10.956Z,13.80
2022-10-21T11:57:43.215Z,14.75
2022-10-21T12:00:18.118Z,14.57
2022-10-21T12:02:53.828Z,15.27
2022-10-21T12:05:30.662Z,12.90
2022-10-21T12:08:09.287Z,17.30
2022-10-21T12:10:59.777Z,20.70
2022-10-21T12:13:30.619Z,19.85
2022-10-21T12:16:01.284Z,18.92
2022-10-21T12:18:30.148Z,19.35
2022-10-21T12:20:58.511Z,17.67
2022-10-21T12:23:29.770Z,15.73
2022-10-21T12:26:06.759Z,18.63
2022-10-21T12:29:00.128Z,22.58
2022-10-21T12:31:31.689Z,16.77
2022-10-21T12:33:58.788Z,15.20
2022-10-21T12:36:28.356Z,14.50
2022-10-21T12:38:59.149Z,15.43
2022-10-21T12:41:35.410Z,16.65
2022-10-21T12:44:04.933Z,18.13
2022-10-21T12:47:02.282Z,16.50
2022-10-21T12:49:35.681Z,14.60
2022-10-21T12:52:15.370Z,15.43
2022-10-21T12:57:28.786Z,15.30
2022-10-21T13:00:34.453Z,16.08
2022-10-21T13:03:11.002Z,15.90
2022-10-21T13:05:37.656Z,19.33
2022-10-21T13:08:22.875Z,18.55
2022-10-21T13:11:07.677Z,12.40
2022-10-21T13:13:47.268Z,12.32
2022-10-21T13:18:54.796Z,12.98
2022-10-21T13:21:29.660Z,11.57
2022-10-21T13:24:15.334Z,9.32
2022-10-21T13:26:52.649Z,11.25
2022-10-21T13:29:42.199Z,9.48
2022-10-21T13:32:19.286Z,8.10
2022-10-21T13:34:55.338Z,13.65
2022-10-21T13:37:29.074Z,7.13
2022-10-21T13:39:58.808Z,8.40
2022-10-21T13:45:23.905Z,7.43
2022-10-21T13:48:12.519Z,6.15
2022-10-21T13:50:45.149Z,8.57
2022-10-21T13:53:29.146Z,6.43
2022-10-21T13:56:12.396Z,8.30
2022-10-21T13:58:39.559Z,6.70
2022-10-21T14:01:15.355Z,6.38
2022-10-21T14:03:42.356Z,9.73
2022-10-21T14:06:10.515Z,8.38
2022-10-21T14:08:47.144Z,5.88
2022-10-21T14:11:37.263Z,6.10
2022-10-21T14:14:09.516Z,7.07
2022-10-21T14:16:40.299Z,5.78
2022-10-21T14:19:14.954Z,6.95
2022-10-21T14:21:45.332Z,7.25
2022-10-21T14:24:33.477Z,11.40
2022-10-21T14:27:01.747Z,13.40
2022-10-21T14:29:33.117Z,6.30
2022-10-21T14:32:00.947Z,9.32
2022-10-21T14:34:30.827Z,10.38
2022-10-21T14:37:26.477Z,10.95
2022-10-21T14:39:53.377Z,8.20
2022-10-21T14:42:25.325Z,9.35
2022-10-21T14:44:58.990Z,11.13
2022-10-21T14:47:27.201Z,11.02
2022-10-21T14:49:56.539Z,15.43
2022-10-21T14:52:40.466Z,10.80
2022-10-21T14:55:15.875Z,12.80
2022-10-21T14:57:49.891Z,16.85
2022-10-21T15:00:29.199Z,13.80
2022-10-21T15:02:57.679Z,13.63
2022-10-21T15:05:38.882Z,12.82
2022-10-21T15:08:34.649Z,15.65
2022-10-21T15:11:12.101Z,16.23
2022-10-21T15:13:38.695Z,16.27
2022-10-21T15:16:19.604Z,10.30
2022-10-21T15:18:48.907Z,16.55
2022-10-21T15:21:27.138Z,14.05
2022-10-21T15:23:59.201Z,13.48
2022-10-21T15:26:31.205Z,13.32
2022-10-21T15:28:58.045Z,19.17
2022-10-21T15:31:29.249Z,17.88
2022-10-21T15:33:58.649Z,17.77
2022-10-21T15:36:25.408Z,28.42
2022-10-21T15:38:52.218Z,21.88
2022-10-21T15:41:24.617Z,20.17
2022-10-21T15:43:58.517Z,22.75
2022-10-21T15:46:26.797Z,19.25
2022-10-21T15:48:53.656Z,18.40
2022-10-21T15:51:20.694Z,16.65
2022-10-21T15:53:47.331Z,14.70
2022-10-21T15:56:19.633Z,20.25
2022-10-21T15:58:46.798Z,19.88
2022-10-21T16:01:16.489Z,13.88
2022-10-21T16:06:19.684Z,15.65
2022-10-21T16:08:47.150Z,15.75
2022-10-21T16:11:25.811Z,13.45
2022-10-21T16:14:01.706Z,14.95
2022-10-21T16:16:28.449Z,14.63
2022-10-21T16:18:55.304Z,17.05
2022-10-21T16:21:22.919Z,19.08
2022-10-21T16:23:49.824Z,14.88
2022-10-21T16:26:21.845Z,15.70
2022-10-21T16:28:50.101Z,20.92
2022-10-21T16:31:16.959Z,19.58
2022-10-21T16:33:44.467Z,13.98
2022-10-21T16:36:23.991Z,20.67
2022-10-21T16:38:51.786Z,16.25
2022-10-21T16:41:21.333Z,19.00
2022-10-21T16:43:48.113Z,19.50
2022-10-21T16:46:30.023Z,17.83
2022-10-21T16:48:58.156Z,19.52
2022-10-21T16:51:28.578Z,20.83
2022-10-21T16:53:55.280Z,18.42
2022-10-21T16:56:22.078Z,18.15
2022-10-21T16:58:49.321Z,17.42
2022-10-21T17:01:19.967Z,21.95
2022-10-21T17:03:47.004Z,21.45
2022-10-21T17:06:15.745Z,25.42
2022-10-21T17:08:42.941Z,26.40
2022-10-21T17:11:33.027Z,24.63
2022-10-21T17:14:00.760Z,29.17
2022-10-21T17:16:27.528Z,27.17
2022-10-21T17:18:54.272Z,32.80
2022-10-21T17:21:23.983Z,29.65
2022-10-21T17:26:17.946Z,30.55
2022-10-21T17:28:45.155Z,25.65
2022-10-21T17:31:31.110Z,24.13
2022-10-21T17:34:02.302Z,30.70
2022-10-21T17:36:28.995Z,29.17
2022-10-21T17:38:55.558Z,27.17
2022-10-21T17:41:22.291Z,26.65
2022-10-21T17:43:49.271Z,31.95
2022-10-21T17:46:20.775Z,36.05
2022-10-21T17:48:55.339Z,31.98
2022-10-21T17:51:23.459Z,32.08
2022-10-21T17:53:54.304Z,36.40
2022-10-21T17:56:21.050Z,28.98
2022-10-21T17:58:55.797Z,26.63
2022-10-21T18:01:24.813Z,29.75
2022-10-21T18:03:52.449Z,30.25
2022-10-21T18:06:20.205Z,33.38
2022-10-21T18:08:46.981Z,30.73
2022-10-21T18:11:16.062Z,30.42
2022-10-21T18:13:43.592Z,32.83
2022-10-21T18:16:12.918Z,32.45
2022-10-21T18:18:39.750Z,33.55
2022-10-21T18:21:09.687Z,30.05
2022-10-21T18:23:38.390Z,32.83
2022-10-21T18:26:07.298Z,36.15
2022-10-21T18:28:34.415Z,36.30
2022-10-21T18:31:05.125Z,37.53
2022-10-21T18:33:32.465Z,36.63
2022-10-21T18:36:13.829Z,35.03
2022-10-21T18:38:40.701Z,35.25
2022-10-21T18:41:25.525Z,26.83
2022-10-21T18:43:55.352Z,30.75
2022-10-21T18:46:23.041Z,33.78
2022-10-21T18:48:50.067Z,38.45
2022-10-21T18:51:23.187Z,33.22
2022-10-21T18:53:52.757Z,40.13
2022-10-21T18:56:21.420Z,29.27
2022-10-21T18:58:48.312Z,30.00
2022-10-21T19:01:15.432Z,25.10
2022-10-21T19:03:42.387Z,29.98
2022-10-21T19:06:38.843Z,33.30
2022-10-21T19:09:10.379Z,28.23
2022-10-21T19:11:37.026Z,36.83
2022-10-21T19:14:03.780Z,29.42
2022-10-21T19:16:30.641Z,31.38
2022-10-21T19:18:57.458Z,48.05
2022-10-21T19:21:24.812Z,36.88
2022-10-21T19:23:52.169Z,43.33
2022-10-21T19:26:22.358Z,33.42
2022-10-21T19:28:50.360Z,35.28
2022-10-21T19:31:21.004Z,36.60
2022-10-21T19:33:47.672Z,32.47
2022-10-21T19:36:14.234Z,35.10
2022-10-21T19:38:44.425Z,34.83
2022-10-21T19:41:17.212Z,37.30
2022-10-21T19:43:44.140Z,30.33
2022-10-21T19:46:14.810Z,28.30
2022-10-21T19:48:41.484Z,31.67
2022-10-21T19:51:15.116Z,33.13
2022-10-21T19:53:42.659Z,29.65
2022-10-21T19:56:09.398Z,32.30
2022-10-21T19:58:39.437Z,30.60
2022-10-21T20:01:13.836Z,32.30
2022-10-21T20:03:42.810Z,32.20
2022-10-21T20:08:42.207Z,43.13
2022-10-21T20:11:12.834Z,33.40
2022-10-21T20:13:40.661Z,31.20
2022-10-21T20:16:07.652Z,33.28
2022-10-21T20:18:34.624Z,27.98
2022-10-21T20:21:07.259Z,36.45
2022-10-21T20:23:34.114Z,39.72
2022-10-21T20:26:00.804Z,30.25
2022-10-21T20:28:28.411Z,30.15
2022-10-21T20:31:08.523Z,31.13
2022-10-21T20:33:38.421Z,30.50
2022-10-21T20:36:13.987Z,34.55
2022-10-21T20:38:41.167Z,33.35
2022-10-21T20:41:11.682Z,32.70
2022-10-21T20:43:40.125Z,29.13
2022-10-21T20:46:09.232Z,33.83
2022-10-21T20:48:39.452Z,27.73
2022-10-21T20:51:11.634Z,28.52
2022-10-21T20:53:40.279Z,30.52
2022-10-21T20:56:07.797Z,25.25
2022-10-21T20:58:36.558Z,35.25
2022-10-21T21:01:11.192Z,30.57
2022-10-21T21:03:39.355Z,29.48
2022-10-21T21:06:06.923Z,32.40
2022-10-21T21:08:36.005Z,32.58
2022-10-21T21:11:04.246Z,34.78
2022-10-21T21:13:31.085Z,31.33
2022-10-21T21:16:07.589Z,35.80
2022-10-21T21:18:35.205Z,33.83
2022-10-21T21:21:07.332Z,35.75
2022-10-21T21:23:34.881Z,37.42
2022-10-21T21:26:11.256Z,37.65
2022-10-21T21:28:38.818Z,42.50
2022-10-21T21:31:08.008Z,47.42
2022-10-21T21:33:35.439Z,37.10
2022-10-21T21:36:04.688Z,41.58
2022-10-21T21:38:32.844Z,40.15
2022-10-21T21:41:00.293Z,47.20
2022-10-21T21:43:28.614Z,43.03
2022-10-21T21:45:55.528Z,42.53
2022-10-21T21:48:22.388Z,39.05
2022-10-21T21:50:49.714Z,44.72
2022-10-21T21:53:19.623Z,48.72
2022-10-21T21:55:46.980Z,49.33
2022-10-21T21:58:14.097Z,44.15
2022-10-21T22:00:40.815Z,48.67
2022-10-21T22:03:07.412Z,48.00
2022-10-21T22:05:34.026Z,39.15
2022-10-21T22:08:01.414Z,36.55
2022-10-21T22:10:28.975Z,44.10
2022-10-21T22:12:56.490Z,36.58
2022-10-21T22:15:46.616Z,41.53
2022-10-21T22:18:10.916Z,38.47
2022-10-21T22:20:39.811Z,35.45
2022-10-21T22:23:06.939Z,29.35
2022-10-21T22:25:33.504Z,28.85
2022-10-21T22:28:00.120Z,44.25
2022-10-21T22:30:26.835Z,32.97
2022-10-21T22:32:53.500Z,36.55
2022-10-21T22:35:20.126Z,36.97
2022-10-21T22:37:46.771Z,31.23
2022-10-21T22:40:13.623Z,28.38
2022-10-21T22:42:40.447Z,28.05
2022-10-21T22:45:07.896Z,35.63
2022-10-21T22:47:35.088Z,30.80
2022-10-21T22:50:01.793Z,26.45
2022-10-21T22:52:28.441Z,29.27
2022-10-21T22:54:55.043Z,33.42
2022-10-21T22:57:21.647Z,27.45
2022-10-21T22:59:52.860Z,29.15
2022-10-21T23:02:20.316Z,31.23
2022-10-21T23:04:47.072Z,33.47
2022-10-21T23:07:13.719Z,28.00
2022-10-21T23:09:40.440Z,26.55
2022-10-21T23:12:07.163Z,31.70
2022-10-21T23:14:33.778Z,27.02
2022-10-21T23:17:00.473Z,25.90
2022-10-21T23:19:27.298Z,28.38
2022-10-21T23:21:53.918Z,31.30
2022-10-21T23:24:20.557Z,33.55
2022-10-21T23:26:47.149Z,31.25
2022-10-21T23:29:13.854Z,35.90
2022-10-21T23:31:40.597Z,33.58
2022-10-21T23:34:07.290Z,38.28
2022-10-21T23:36:35.451Z,38.40
2022-10-21T23:39:02.377Z,34.47
2022-10-21T23:41:29.195Z,39.65
2022-10-21T23:43:55.794Z,35.08
2022-10-21T23:46:22.760Z,38.40
2022-10-21T23:48:49.568Z,39.65
2022-10-21T23:51:16.263Z,47.03
2022-10-21T23:53:42.869Z,43.00
2022-10-21T23:56:09.552Z,41.53
2022-10-21T23:58:36.221Z,40.20
